Time;durP1;ratioP1;P1;durP2;ratioP2;P2;SDS_P1;SDS_P2;PMS_P1;PMS_P2;Temp;Humidity;BMP_temperature;BMP_pressure;BME280_temperature;BME280_humidity;BME280_pressure;Samples;Min_cycle;Max_cycle;Signal;HPM_P1;HPM_P2
2023/10/01 00:01:07;;;;;;;;;;;;;;;17.12;55.98;100798.25;4957994;29;1075;-64
2023/10/01 00:03:32;;;;;;;;;;;;;;;16.96;55.66;100798.25;4953521;29;1100;-63
2023/10/01 00:05:58;;;;;;;;;;;;;;;16.81;55.48;100787.25;4945661;29;1050;-63
2023/10/01 00:08:23;;;;;;;;;;;;;;;16.76;55.11;100777.91;4945262;29;1021;-63
2023/10/01 00:10:49;;;;;;;;;;;;;;;16.62;55.35;100776.81;4939358;28;1126;-63
2023/10/01 00:13:15;;;;;;;;;;;;;;;16.63;54.91;100783.94;4939212;29;1061;-64
2023/10/01 00:15:41;;;;;;;;;;;;;;;16.58;54.59;100789.44;4940282;29;876;-64
2023/10/01 00:18:07;;;;;;;;;;;;;;;16.75;55.71;100779.00;4951788;29;1899;-64
2023/10/01 00:20:33;;;;;;;;;;;;;;;17.81;55.44;100780.19;4958198;29;1276;-62
2023/10/01 00:23:01;;;;;;;;;;;;;;;17.16;56.28;100772.66;4944797;29;1148;-61
2023/10/01 00:25:27;;;;;;;;;;;;;;;17.01;55.76;100781.78;4946312;29;1108;-61
2023/10/01 00:27:52;;;;;;;;;;;;;;;16.88;55.53;100772.16;4953524;28;1160;-61
2023/10/01 00:30:18;;;;;;;;;;;;;;;16.77;55.59;100781.47;4954311;29;1270;-62
2023/10/01 00:32:44;;;;;;;;;;;;;;;16.73;55.29;100778.47;4943208;29;1217;-61
2023/10/01 00:35:11;;;;;;;;;;;;;;;16.60;55.31;100781.72;4962004;28;1164;-62
2023/10/01 00:37:37;;;;;;;;;;;;;;;16.60;54.88;100792.72;4947478;29;1548;-61
2023/10/01 00:40:05;;;;;;;;;;;;;;;16.56;55.07;100786.13;4952167;29;1989;-61
2023/10/01 00:42:37;;;;;;;;;;;;;;;16.50;54.72;100787.22;4949235;29;1195;-62
2023/10/01 00:45:03;;;;;;;;;;;;;;;17.44;56.24;100784.97;4953117;29;1161;-62
2023/10/01 00:47:29;;;;;;;;;;;;;;;17.29;56.21;100785.00;4956595;29;1099;-62
2023/10/01 00:49:54;;;;;;;;;;;;;;;16.97;56.09;100794.41;4944864;29;1142;-62
2023/10/01 00:52:20;;;;;;;;;;;;;;;16.87;55.69;100794.38;4949778;29;1117;-63
2023/10/01 00:54:50;;;;;;;;;;;;;;;16.72;55.73;100779.53;4960345;29;1333;-63
2023/10/01 00:57:16;;;;;;;;;;;;;;;16.66;55.35;100779.81;4948640;29;1120;-63
2023/10/01 00:59:43;;;;;;;;;;;;;;;16.63;55.10;100783.13;4961700;29;1918;-64
2023/10/01 01:02:09;;;;;;;;;;;;;;;16.50;54.94;100788.03;4961676;29;1005;-60
2023/10/01 01:04:42;;;;;;;;;;;;;;;16.52;55.22;100785.84;4956007;29;1447;-62
2023/10/01 01:07:19;;;;;;;;;;;;;;;17.70;56.03;100776.66;4959856;29;1532;-62
2023/10/01 01:09:49;;;;;;;;;;;;;;;17.17;56.37;100777.06;4961826;29;1084;-63
2023/10/01 01:12:15;;;;;;;;;;;;;;;17.03;55.76;100779.56;4948771;29;1069;-63
2023/10/01 01:14:44;;;;;;;;;;;;;;;16.87;55.73;100777.88;4950281;29;1204;-63
2023/10/01 01:17:10;;;;;;;;;;;;;;;16.76;55.62;100783.38;4948225;29;1041;-64
2023/10/01 01:19:36;;;;;;;;;;;;;;;16.69;55.21;100782.84;4948618;29;1963;-63
2023/10/01 01:22:02;;;;;;;;;;;;;;;16.64;54.80;100777.34;4954844;29;1068;-63
2023/10/01 01:24:29;;;;;;;;;;;;;;;16.61;54.64;100777.91;4952478;29;1222;-63
2023/10/01 01:27:00;;;;;;;;;;;;;;;16.59;55.52;100775.44;4961439;29;1185;-63
2023/10/01 01:29:33;;;;;;;;;;;;;;;17.57;55.93;100778.06;4953665;29;1276;-63
2023/10/01 01:32:13;;;;;;;;;;;;;;;17.09;56.05;100777.63;4948944;29;1018;-64
2023/10/01 01:34:40;;;;;;;;;;;;;;;16.90;55.80;100780.09;4959929;29;1149;-64
2023/10/01 01:37:07;;;;;;;;;;;;;;;16.76;55.68;100775.16;4960595;29;1072;-64
2023/10/01 01:39:48;;;;;;;;;;;;;;;16.70;55.28;100773.50;4957234;28;1910;-62
2023/10/01 01:42:19;;;;;;;;;;;;;;;16.62;55.00;100773.22;4951923;29;1140;-63
2023/10/01 01:44:47;;;;;;;;;;;;;;;16.58;54.80;100767.47;4946698;29;1145;-61
2023/10/01 01:47:15;;;;;;;;;;;;;;;16.49;54.73;100777.34;4948592;29;1165;-64
2023/10/01 01:49:42;;;;;;;;;;;;;;;17.49;56.03;100769.56;4962703;28;1097;-64
2023/10/01 01:52:08;;;;;;;;;;;;;;;17.30;56.09;100778.41;4954398;29;1028;-64
2023/10/01 01:54:39;;;;;;;;;;;;;;;16.96;56.06;100784.50;4942279;29;1204;-63
2023/10/01 01:57:12;;;;;;;;;;;;;;;16.88;55.57;100785.03;4940582;29;1062;-64
2023/10/01 01:59:39;;;;;;;;;;;;;;;16.77;55.49;100787.78;4947710;29;1977;-63
2023/10/01 02:02:07;;;;;;;;;;;;;;;16.79;55.49;100786.69;4959199;29;1126;-64
2023/10/01 02:04:32;;;;;;;;;;;;;;;17.65;55.49;100781.34;4960211;29;909;-64
2023/10/01 02:06:59;;;;;;;;;;;;;;;17.18;56.02;100783.38;4960426;29;1036;-64
2023/10/01 02:09:24;;;;;;;;;;;;;;;16.96;56.05;100789.16;4960178;29;1124;-64
2023/10/01 02:11:50;;;;;;;;;;;;;;;16.84;55.55;100787.50;4947464;29;1120;-63
2023/10/01 02:14:31;;;;;;;;;;;;;;;16.80;55.28;100786.41;4958881;29;1287;-64
2023/10/01 02:17:03;;;;;;;;;;;;;;;16.72;55.02;100789.72;4954854;29;1160;-63
2023/10/01 02:19:29;;;;;;;;;;;;;;;16.70;55.23;100784.47;4949341;29;1973;-64
2023/10/01 02:22:05;;;;;;;;;;;;;;;17.78;55.80;100792.56;4957996;29;1073;-64
2023/10/01 02:27:18;;;;;;;;;;;;;;;17.01;55.77;100784.53;4948669;29;983;-64
2023/10/01 02:32:28;;;;;;;;;;;;;;;16.79;55.58;100787.50;4939988;29;1170;-64
2023/10/01 02:34:56;;;;;;;;;;;;;;;16.66;55.28;100794.38;4953663;29;1050;-64
2023/10/01 02:37:29;;;;;;;;;;;;;;;16.63;55.19;100796.84;4951536;29;1092;-64
2023/10/01 02:39:59;;;;;;;;;;;;;;;16.62;54.98;100790.53;4946205;29;1919;-64
2023/10/01 02:42:30;;;;;;;;;;;;;;;16.56;54.95;100794.34;4958406;29;1113;-64
2023/10/01 02:44:56;;;;;;;;;;;;;;;16.55;55.41;100793.53;4941001;29;1022;-64
2023/10/01 02:47:23;;;;;;;;;;;;;;;17.67;56.06;100784.63;4953963;29;1062;-64
2023/10/01 02:49:50;;;;;;;;;;;;;;;17.17;56.10;100790.81;4958062;29;1006;-64
2023/10/01 02:52:16;;;;;;;;;;;;;;;16.93;56.13;100780.41;4955340;28;1061;-64
2023/10/01 02:54:41;;;;;;;;;;;;;;;16.83;55.82;100782.28;4953003;29;1073;-63
2023/10/01 02:57:13;;;;;;;;;;;;;;;16.70;55.36;100780.91;4953575;29;1118;-64
2023/10/01 03:00:09;;;;;;;;;;;;;;;16.64;55.40;100782.84;4959648;29;1993;-64
2023/10/01 03:02:25;;;;;;;;;;;;;;;16.59;55.10;100789.16;4954278;29;1615;-64
2023/10/01 03:04:50;;;;;;;;;;;;;;;16.52;55.16;100790.50;4942623;29;1072;-65
2023/10/01 03:07:17;;;;;;;;;;;;;;;17.00;56.27;100788.34;4953410;29;1089;-64
2023/10/01 03:09:43;;;;;;;;;;;;;;;17.43;56.43;100788.84;4951053;29;1195;-64
2023/10/01 03:12:35;;;;;;;;;;;;;;;17.07;56.37;100791.66;4958674;29;1025;-64
2023/10/01 03:15:17;;;;;;;;;;;;;;;16.90;55.90;100785.59;4946165;29;1041;-56
2023/10/01 03:17:58;;;;;;;;;;;;;;;16.76;55.69;100788.88;4958936;29;885;-56
2023/10/01 03:23:12;;;;;;;;;;;;;;;16.60;55.07;100796.28;4946015;29;1848;-56
2023/10/01 03:25:42;;;;;;;;;;;;;;;16.52;55.22;100799.59;4958879;29;1137;-55
2023/10/01 03:28:11;;;;;;;;;;;;;;;16.85;56.29;100793.84;4943483;29;1068;-55
2023/10/01 03:30:39;;;;;;;;;;;;;;;17.59;56.18;100795.09;4959210;29;1085;-56
2023/10/01 03:33:07;;;;;;;;;;;;;;;17.10;56.28;100804.00;4954997;29;1045;-56
2023/10/01 03:35:36;;;;;;;;;;;;;;;16.99;55.65;100799.63;4940021;29;1143;-55
2023/10/01 03:38:10;;;;;;;;;;;;;;;16.76;55.80;100808.09;4955915;29;1066;-55
2023/10/01 03:40:57;;;;;;;;;;;;;;;16.68;55.41;100799.59;4951212;29;1235;-55
2023/10/01 03:43:31;;;;;;;;;;;;;;;16.66;55.16;100799.03;4957949;29;1356;-55
2023/10/01 03:46:07;;;;;;;;;;;;;;;16.60;54.74;100792.72;4958899;29;1068;-55
2023/10/01 03:48:57;;;;;;;;;;;;;;;17.07;56.24;100797.13;4958351;29;1192;-57
2023/10/01 03:51:52;;;;;;;;;;;;;;;17.40;56.16;100794.06;4939385;29;1444;-57
2023/10/01 03:54:16;;;;;;;;;;;;;;;16.97;56.08;100802.66;4955758;29;1310;-55
2023/10/01 03:56:47;;;;;;;;;;;;;;;16.83;55.88;100796.84;4957968;28;1041;-56
2023/10/01 03:59:16;;;;;;;;;;;;;;;16.80;55.53;100799.31;4958554;29;1977;-56
2023/10/01 04:01:58;;;;;;;;;;;;;;;16.74;54.99;100807.53;4958685;29;1094;-56
2023/10/01 04:04:27;;;;;;;;;;;;;;;16.68;55.04;100819.63;4944924;28;1183;-53
2023/10/01 04:06:56;;;;;;;;;;;;;;;16.59;55.13;100804.78;4958099;29;1181;-58
2023/10/01 04:09:26;;;;;;;;;;;;;;;17.58;56.46;100806.38;4955844;28;1260;-59
2023/10/01 04:11:57;;;;;;;;;;;;;;;17.43;56.50;100810.81;4948126;29;1033;-57
2023/10/01 04:14:23;;;;;;;;;;;;;;;17.06;56.46;100809.22;4957589;29;1068;-53
2023/10/01 04:16:49;;;;;;;;;;;;;;;16.90;55.79;100808.41;4955172;29;1119;-56
2023/10/01 04:19:18;;;;;;;;;;;;;;;16.83;55.75;100810.59;4955619;29;1984;-54
2023/10/01 04:21:50;;;;;;;;;;;;;;;16.69;55.44;100823.19;4958085;29;1090;-54
2023/10/01 04:24:21;;;;;;;;;;;;;;;16.66;55.10;100813.59;4957390;29;957;-52
2023/10/01 04:26:47;;;;;;;;;;;;;;;16.59;55.00;100818.50;4958033;29;1030;-54
2023/10/01 04:29:16;;;;;;;;;;;;;;;16.56;54.65;100819.06;4957287;29;1104;-54
2023/10/01 04:31:42;;;;;;;;;;;;;;;17.13;56.30;100816.38;4950308;29;1176;-58
2023/10/01 04:34:11;;;;;;;;;;;;;;;17.42;56.33;100814.66;4957568;29;1132;-58
2023/10/01 04:36:50;;;;;;;;;;;;;;;16.98;56.24;100820.75;4957690;29;1057;-61
2023/10/01 04:39:17;;;;;;;;;;;;;;;17.43;56.54;100816.31;4957722;29;1914;-59
2023/10/01 04:41:42;;;;;;;;;;;;;;;16.89;54.85;100819.69;4939908;29;946;-57
2023/10/01 04:44:08;;;;;;;;;;;;;;;16.74;53.08;100824.00;4950830;29;1092;-57
2023/10/01 04:46:37;;;;;;;;;;;;;;;16.56;51.73;100819.91;4945634;29;1144;-60
2023/10/01 04:49:08;;;;;;;;;;;;;;;17.09;53.22;100819.66;4957614;29;1065;-58
2023/10/01 04:51:46;;;;;;;;;;;;;;;17.01;53.72;100813.91;4958228;29;1157;-57
2023/10/01 04:54:21;;;;;;;;;;;;;;;16.77;51.79;100831.72;4952862;29;1136;-58
2023/10/01 04:56:48;;;;;;;;;;;;;;;16.64;50.27;100826.75;4957790;29;1133;-57
2023/10/01 04:59:14;;;;;;;;;;;;;;;17.29;52.06;100826.22;4957139;29;1996;-55
2023/10/01 05:01:41;;;;;;;;;;;;;;;16.90;51.25;100821.31;4957982;29;1004;-56
2023/10/01 05:04:11;;;;;;;;;;;;;;;16.74;50.03;100832.25;4945035;28;1129;-54
2023/10/01 05:06:36;;;;;;;;;;;;;;;16.74;48.86;100831.44;4948825;29;1333;-58
2023/10/01 05:09:02;;;;;;;;;;;;;;;16.66;48.56;100835.56;4940849;29;1140;-55
2023/10/01 05:11:32;;;;;;;;;;;;;;;16.75;49.12;100831.16;4957045;29;1128;-56
2023/10/01 05:13:58;;;;;;;;;;;;;;;17.39;50.71;100822.63;4944779;29;1033;-56
2023/10/01 05:16:26;;;;;;;;;;;;;;;17.01;50.99;100828.47;4951822;28;1017;-55
2023/10/01 05:19:09;;;;;;;;;;;;;;;16.97;49.63;100832.88;4956746;29;1914;-55
2023/10/01 05:21:41;;;;;;;;;;;;;;;16.69;49.21;100839.66;4949666;29;1167;-55
2023/10/01 05:24:08;;;;;;;;;;;;;;;17.73;50.54;100839.34;4955271;29;1057;-54
2023/10/01 05:26:35;;;;;;;;;;;;;;;17.39;51.24;100825.38;4954451;29;1092;-55
2023/10/01 05:29:02;;;;;;;;;;;;;;;17.17;50.56;100833.97;4948155;29;994;-55
2023/10/01 05:31:29;;;;;;;;;;;;;;;17.19;50.13;100826.25;4952254;29;1073;-56
2023/10/01 05:33:58;;;;;;;;;;;;;;;17.70;51.67;100836.34;4950976;29;1085;-57
2023/10/01 05:36:24;;;;;;;;;;;;;;;17.39;50.92;100834.47;4960688;29;1093;-55
2023/10/01 05:38:51;;;;;;;;;;;;;;;17.18;49.96;100836.44;4961022;29;1980;-55
2023/10/01 05:41:29;;;;;;;;;;;;;;;17.20;48.87;100833.41;4957896;29;1061;-56
2023/10/01 05:43:55;;;;;;;;;;;;;;;17.06;47.98;100831.19;4960821;29;1046;-53
2023/10/01 05:46:22;;;;;;;;;;;;;;;16.99;47.51;100832.59;4959822;29;1064;-56
2023/10/01 05:48:49;;;;;;;;;;;;;;;16.90;47.92;100840.53;4960610;29;1194;-56
2023/10/01 05:51:15;;;;;;;;;;;;;;;17.60;49.57;100835.25;4960860;29;1046;-58
2023/10/01 05:53:41;;;;;;;;;;;;;;;17.23;49.64;100827.34;4956777;29;1076;-56
2023/10/01 05:56:07;;;;;;;;;;;;;;;17.13;48.47;100830.13;4958842;29;1111;-57
2023/10/01 05:58:33;;;;;;;;;;;;;;;16.99;47.88;100838.91;4951260;29;1911;-56
2023/10/01 06:01:05;;;;;;;;;;;;;;;17.06;47.44;100820.22;4958740;29;1132;-55
2023/10/01 06:03:31;;;;;;;;;;;;;;;16.95;46.87;100821.31;4959513;29;1292;-55
2023/10/01 06:05:59;;;;;;;;;;;;;;;16.85;46.69;100837.78;4957538;29;1256;-56
2023/10/01 06:08:32;;;;;;;;;;;;;;;16.87;46.44;100841.06;4959817;29;1296;-55
2023/10/01 06:11:05;;;;;;;;;;;;;;;16.75;46.53;100842.16;4959942;29;1397;-56
2023/10/01 06:13:37;;;;;;;;;;;;;;;17.14;47.25;100843.56;4960392;29;1279;-55
2023/10/01 06:16:11;;;;;;;;;;;;;;;17.26;49.28;100843.28;4958067;29;1308;-52
2023/10/01 06:18:43;;;;;;;;;;;;;;;17.11;48.46;100846.88;4957709;29;1967;-52
2023/10/01 06:21:09;;;;;;;;;;;;;;;17.02;47.60;100848.53;4959532;29;1209;-55
2023/10/01 06:23:49;;;;;;;;;;;;;;;16.85;47.53;100851.50;4958431;29;1331;-52
2023/10/01 06:26:15;;;;;;;;;;;;;;;16.85;46.79;100851.50;4958879;28;1094;-55
2023/10/01 06:28:41;;;;;;;;;;;;;;;17.68;47.85;100850.34;4940523;29;1033;-53
2023/10/01 06:31:06;;;;;;;;;;;;;;;17.18;48.50;100852.91;4945008;29;1046;-57
2023/10/01 06:33:35;;;;;;;;;;;;;;;17.00;47.89;100857.03;4946812;29;1164;-56
2023/10/01 06:36:16;;;;;;;;;;;;;;;17.01;47.34;100853.19;4947050;29;1133;-57
2023/10/01 06:38:44;;;;;;;;;;;;;;;16.87;46.82;100852.03;4959365;29;1961;-55
2023/10/01 06:41:13;;;;;;;;;;;;;;;16.88;46.46;100853.69;4956417;29;1138;-53
2023/10/01 06:43:48;;;;;;;;;;;;;;;16.81;46.35;100853.16;4957085;29;1165;-53
2023/10/01 06:46:34;;;;;;;;;;;;;;;16.81;46.29;100864.94;4959793;29;1053;-55
2023/10/01 06:49:01;;;;;;;;;;;;;;;16.94;46.76;100863.59;4958816;29;1615;-53
2023/10/01 06:51:27;;;;;;;;;;;;;;;17.39;48.46;100870.22;4959841;29;1064;-55
2023/10/01 06:53:58;;;;;;;;;;;;;;;17.10;48.04;100884.50;4957279;29;1077;-55
2023/10/01 06:56:29;;;;;;;;;;;;;;;16.98;47.51;100877.63;4940549;29;1040;-55
2023/10/01 07:01:59;;;;;;;;;;;;;;;16.83;46.81;100878.41;4958862;29;1220;-55
2023/10/01 07:04:23;;;;;;;;;;;;;;;16.71;46.74;100876.75;4948828;29;1205;-56
2023/10/01 07:06:50;;;;;;;;;;;;;;;17.36;47.37;100875.41;4951825;29;1093;-56
2023/10/01 07:09:25;;;;;;;;;;;;;;;17.39;47.94;100878.47;4958440;29;1205;-54
2023/10/01 07:11:51;;;;;;;;;;;;;;;16.91;48.18;100875.16;4959095;29;1101;-53
2023/10/01 07:14:18;;;;;;;;;;;;;;;17.00;47.27;100878.16;4958604;29;1299;-55
2023/10/01 07:16:44;;;;;;;;;;;;;;;16.97;46.82;100874.06;4954729;29;1089;-50
2023/10/01 07:19:12;;;;;;;;;;;;;;;17.66;47.94;100876.50;4939747;29;1908;-55
2023/10/01 07:21:41;;;;;;;;;;;;;;;17.24;48.04;100875.72;4957126;29;1065;-55
2023/10/01 07:24:10;;;;;;;;;;;;;;;17.06;47.52;100883.41;4958585;29;1120;-55
2023/10/01 07:26:40;;;;;;;;;;;;;;;17.02;46.83;100882.28;4946218;29;1101;-54
2023/10/01 07:29:08;;;;;;;;;;;;;;;16.99;46.49;100882.84;4958950;29;1096;-55
2023/10/01 07:31:37;;;;;;;;;;;;;;;16.96;46.29;100883.41;4951652;29;1056;-55
2023/10/01 07:34:12;;;;;;;;;;;;;;;16.88;46.07;100876.50;4958699;29;1116;-52
2023/10/01 07:36:43;;;;;;;;;;;;;;;16.82;46.11;100882.25;4953936;29;1094;-49
2023/10/01 07:39:09;;;;;;;;;;;;;;;17.69;47.09;100884.19;4951165;29;1898;-53
2023/10/01 07:41:38;;;;;;;;;;;;;;;17.08;47.80;100889.47;4948694;29;1267;-51
2023/10/01 07:44:08;;;;;;;;;;;;;;;16.96;47.14;100883.41;4943738;29;1089;-53
2023/10/01 07:46:34;;;;;;;;;;;;;;;16.86;47.07;100886.94;4955323;29;1115;-53
2023/10/01 07:49:00;;;;;;;;;;;;;;;16.81;46.76;100880.59;4956958;29;1241;-52
2023/10/01 07:51:35;;;;;;;;;;;;;;;16.81;46.39;100878.69;4957957;29;1320;-54
2023/10/01 07:54:02;;;;;;;;;;;;;;;16.86;46.04;100872.38;4958218;29;1052;-49
2023/10/01 07:56:28;;;;;;;;;;;;;;;17.72;47.71;100878.13;4958003;29;1310;-52
2023/10/01 08:01:42;;;;;;;;;;;;;;;17.16;47.15;100879.00;4957201;29;1222;-54
2023/10/01 08:04:25;;;;;;;;;;;;;;;17.07;46.71;100873.25;4958308;29;1276;-51
2023/10/01 08:06:56;;;;;;;;;;;;;;;16.95;46.56;100876.25;4955666;29;1357;-52
2023/10/01 08:09:22;;;;;;;;;;;;;;;16.88;46.28;100875.66;4957734;29;1275;-50
2023/10/01 08:12:05;;;;;;;;;;;;;;;16.70;46.40;100857.78;4957675;29;1232;-52
2023/10/01 08:14:33;;;;;;;;;;;;;;;16.83;45.77;100867.41;4958104;29;1280;-52
2023/10/01 08:17:08;;;;;;;;;;;;;;;17.85;47.57;100873.94;4957425;29;1366;-52
2023/10/01 08:19:49;;;;;;;;;;;;;;;17.18;48.27;100863.91;4954792;29;1901;-51
2023/10/01 08:22:15;;;;;;;;;;;;;;;17.10;47.32;100879.00;4955983;29;1049;-54
2023/10/01 08:24:45;;;;;;;;;;;;;;;16.92;47.22;100877.63;4962436;28;1109;-50
2023/10/01 08:27:14;;;;;;;;;;;;;;;16.92;46.82;100874.06;4958060;29;1101;-56
2023/10/01 08:32:23;;;;;;;;;;;;;;;16.84;46.45;100880.06;4943207;29;1106;-55
2023/10/01 08:35:01;;;;;;;;;;;;;;;16.82;46.21;100885.00;4951995;29;1065;-52
2023/10/01 08:37:31;;;;;;;;;;;;;;;17.59;47.36;100882.28;4950685;29;1145;-52
2023/10/01 08:40:00;;;;;;;;;;;;;;;17.18;47.91;100890.53;4939916;29;1906;-50
2023/10/01 08:42:28;;;;;;;;;;;;;;;17.04;47.38;100896.59;4939069;29;1065;-56
2023/10/01 08:45:04;;;;;;;;;;;;;;;17.04;46.94;100890.25;4945088;29;1137;-56
2023/10/01 08:47:37;;;;;;;;;;;;;;;16.91;46.85;100891.63;4945487;29;1022;-56
2023/10/01 08:50:17;;;;;;;;;;;;;;;16.92;46.61;100887.78;4950889;28;1173;-58
2023/10/01 08:52:52;;;;;;;;;;;;;;;17.57;46.99;100889.97;4945971;29;1119;-56
2023/10/01 08:55:40;;;;;;;;;;;;;;;17.29;48.24;100897.69;4961676;29;1152;-55
2023/10/01 08:58:15;;;;;;;;;;;;;;;17.10;47.47;100894.69;4953592;29;1046;-55
2023/10/01 09:00:48;;;;;;;;;;;;;;;16.97;47.34;100901.53;4957881;29;1284;-57
2023/10/01 09:03:26;;;;;;;;;;;;;;;17.02;46.69;100896.03;4961281;29;1197;-57
2023/10/01 09:06:01;;;;;;;;;;;;;;;16.98;46.60;100899.59;4948250;29;1109;-56
2023/10/01 09:08:31;;;;;;;;;;;;;;;16.90;46.41;100899.06;4959847;29;1228;-58
2023/10/01 09:10:56;;;;;;;;;;;;;;;16.87;46.12;100895.97;4958849;29;1175;-58
2023/10/01 09:13:22;;;;;;;;;;;;;;;16.96;45.81;100899.03;4960868;29;1296;-60
2023/10/01 09:15:56;;;;;;;;;;;;;;;17.73;47.83;100902.59;4960828;28;1319;-58
2023/10/01 09:18:23;;;;;;;;;;;;;;;17.30;47.97;100899.34;4960772;29;1903;-56
2023/10/01 09:21:06;;;;;;;;;;;;;;;17.18;47.50;100896.03;4958026;29;1292;-58
2023/10/01 09:23:56;;;;;;;;;;;;;;;17.05;46.98;100897.41;4959316;29;1113;-57
2023/10/01 09:26:37;;;;;;;;;;;;;;;17.07;46.62;100906.22;4959414;29;1305;-58
2023/10/01 09:29:13;;;;;;;;;;;;;;;16.97;46.37;100906.19;4960785;29;1011;-58
2023/10/01 09:31:58;;;;;;;;;;;;;;;16.99;45.94;100904.00;4959929;29;1185;-57
2023/10/01 09:34:33;;;;;;;;;;;;;;;17.61;47.33;100900.16;4960487;29;1339;-59
2023/10/01 09:37:12;;;;;;;;;;;;;;;17.40;47.83;100898.50;4958585;29;1312;-57
2023/10/01 09:39:38;;;;;;;;;;;;;;;17.18;47.29;100915.28;4960370;29;1980;-59
2023/10/01 09:42:25;;;;;;;;;;;;;;;17.14;46.82;100917.75;4960269;29;1263;-58
2023/10/01 09:44:54;;;;;;;;;;;;;;;16.87;46.89;100913.31;4959706;29;1304;-58
2023/10/01 09:47:25;;;;;;;;;;;;;;;17.00;46.34;100911.97;4960710;29;1260;-58
2023/10/01 09:49:52;;;;;;;;;;;;;;;16.96;46.24;100907.28;4960396;29;1316;-59
2023/10/01 09:52:27;;;;;;;;;;;;;;;16.90;46.12;100917.44;4959946;29;1267;-59
2023/10/01 09:55:03;;;;;;;;;;;;;;;16.93;45.94;100911.44;4960223;29;1440;-59
2023/10/01 09:57:34;;;;;;;;;;;;;;;16.87;45.87;100916.06;4959735;29;1086;-58
2023/10/01 10:00:17;;;;;;;;;;;;;;;17.53;46.60;100900.72;4959465;29;2021;-59
2023/10/01 10:02:51;;;;;;;;;;;;;;;17.22;47.89;100913.63;4956979;29;2565;-58
2023/10/01 10:05:26;;;;;;;;;;;;;;;17.09;47.28;100904.00;4959495;29;2150;-58
2023/10/01 10:08:13;;;;;;;;;;;;;;;16.95;47.09;100902.91;4953606;29;2052;-58
2023/10/01 10:10:48;;;;;;;;;;;;;;;17.03;46.30;100907.88;4945159;29;2048;-58
2023/10/01 10:13:38;;;;;;;;;;;;;;;17.00;46.11;100903.75;4946882;29;2110;-56
2023/10/01 10:16:55;;;;;;;;;;;;;;;16.85;45.84;100903.69;4952782;29;2076;-58
2023/10/01 10:19:05;;;;;;;;;;;;;;;16.86;45.56;100888.88;4933863;29;1894;-58
2023/10/01 10:22:05;;;;;;;;;;;;;;;16.96;45.36;100888.06;4958308;29;923;-57
2023/10/01 10:24:37;;;;;;;;;;;;;;;16.68;46.06;100884.72;4945149;29;1424;-58
2023/10/01 10:27:09;;;;;;;;;;;;;;;16.80;45.53;100887.19;4958899;29;1057;-57
2023/10/01 10:29:47;;;;;;;;;;;;;;;16.70;45.86;100888.81;4959241;29;1116;-58
2023/10/01 10:32:12;;;;;;;;;;;;;;;16.70;45.70;100883.31;4952370;28;1380;-58
2023/10/01 10:34:47;;;;;;;;;;;;;;;16.72;45.86;100877.59;4953379;29;1168;-57
2023/10/01 10:37:31;;;;;;;;;;;;;;;17.81;46.97;100881.13;4949912;29;1022;-52
2023/10/01 10:40:02;;;;;;;;;;;;;;;17.19;47.65;100881.22;4946976;28;1959;-57
2023/10/01 10:42:28;;;;;;;;;;;;;;;17.03;47.29;100883.13;4959143;29;1030;-58
2023/10/01 10:45:19;;;;;;;;;;;;;;;16.96;46.99;100886.16;4944989;29;901;-57
2023/10/01 10:48:03;;;;;;;;;;;;;;;16.92;46.75;100879.56;4953155;29;2305;-58
2023/10/01 10:50:49;;;;;;;;;;;;;;;16.92;46.20;100874.06;4952740;29;1499;-57
2023/10/01 10:53:15;;;;;;;;;;;;;;;16.96;46.11;100883.41;4958167;29;1665;-60
2023/10/01 10:55:50;;;;;;;;;;;;;;;17.52;47.13;100879.81;4959191;29;1121;-59
2023/10/01 10:58:15;;;;;;;;;;;;;;;17.04;47.74;100879.28;4955030;29;1036;-59
2023/10/01 11:00:41;;;;;;;;;;;;;;;17.05;47.19;100868.00;4949768;29;1906;-58
2023/10/01 11:03:10;;;;;;;;;;;;;;;16.89;47.08;100872.69;4954452;29;1126;-55
2023/10/01 11:05:49;;;;;;;;;;;;;;;17.02;46.71;100876.00;4939787;29;1002;-57
2023/10/01 11:08:25;;;;;;;;;;;;;;;17.53;47.28;100869.63;4952509;29;1060;-57
2023/10/01 11:10:51;;;;;;;;;;;;;;;17.33;47.67;100882.28;4952667;29;1108;-57
2023/10/01 11:13:27;;;;;;;;;;;;;;;17.20;47.51;100882.88;4947323;29;998;-56
2023/10/01 11:15:53;;;;;;;;;;;;;;;17.01;47.08;100872.44;4958699;29;1045;-53
2023/10/01 11:18:25;;;;;;;;;;;;;;;17.03;46.88;100878.47;4950436;29;2703;-57
2023/10/01 11:21:01;;;;;;;;;;;;;;;16.99;46.57;100871.06;4947863;29;1112;-57
2023/10/01 11:23:26;;;;;;;;;;;;;;;16.91;46.58;100870.50;4957772;29;1045;-56
2023/10/01 11:25:52;;;;;;;;;;;;;;;17.79;47.24;100871.22;4953521;29;1226;-56
2023/10/01 11:28:17;;;;;;;;;;;;;;;17.24;47.94;100862.78;4949589;29;1104;-59
2023/10/01 11:30:43;;;;;;;;;;;;;;;17.18;47.45;100863.06;4958110;29;1096;-58
2023/10/01 11:35:40;;;;;;;;;;;;;;;17.04;46.68;100868.28;4948728;29;1133;-58
2023/10/01 11:38:13;;;;;;;;;;;;;;;17.06;46.19;100866.91;4956022;29;1067;-57
2023/10/01 11:43:27;;;;;;;;;;;;;;;17.01;45.91;100869.69;4957672;29;1122;-57
2023/10/01 11:49:06;;;;;;;;;;;;;;;16.93;45.97;100871.03;4935759;29;1324;-54
2023/10/01 11:51:41;;;;;;;;;;;;;;;17.64;47.01;100862.19;4957624;29;1528;-57
2023/10/01 11:54:09;;;;;;;;;;;;;;;17.23;47.40;100868.56;4957487;29;1221;-57
2023/10/01 11:56:40;;;;;;;;;;;;;;;17.07;47.38;100874.06;4955252;29;1201;-57
2023/10/01 11:59:08;;;;;;;;;;;;;;;17.14;46.79;100872.94;4958173;29;1939;-58
2023/10/01 12:01:45;;;;;;;;;;;;;;;17.05;46.56;100865.25;4957904;29;1275;-57
2023/10/01 12:04:11;;;;;;;;;;;;;;;17.04;46.29;100863.63;4957311;29;1123;-57
2023/10/01 12:06:38;;;;;;;;;;;;;;;16.99;46.10;100869.13;4957143;29;1169;-57
2023/10/01 12:09:04;;;;;;;;;;;;;;;16.95;46.28;100865.25;4949767;29;1128;-57
2023/10/01 12:11:31;;;;;;;;;;;;;;;16.95;46.11;100858.97;4951494;29;1147;-57
2023/10/01 12:14:06;;;;;;;;;;;;;;;16.96;46.05;100846.84;4948235;29;1089;-58
2023/10/01 12:16:32;;;;;;;;;;;;;;;16.88;45.93;100850.94;4957699;28;2455;-60
2023/10/01 12:19:39;;;;;;;;;;;;;;;16.89;45.85;100847.16;4956124;29;1906;-58
2023/10/01 12:21:48;;;;;;;;;;;;;;;16.86;45.98;100847.66;4940824;29;1317;-59
2023/10/01 12:24:15;;;;;;;;;;;;;;;16.87;45.90;100841.06;4938087;29;1026;-59
2023/10/01 12:26:43;;;;;;;;;;;;;;;16.87;45.77;100846.56;4946328;29;1058;-59
2023/10/01 12:29:12;;;;;;;;;;;;;;;17.92;46.97;100838.75;4957103;29;987;-57
2023/10/01 12:31:44;;;;;;;;;;;;;;;17.28;47.64;100833.66;4942926;29;1002;-59
2023/10/01 12:34:10;;;;;;;;;;;;;;;17.10;47.67;100839.72;4953257;29;856;-59
2023/10/01 12:36:45;;;;;;;;;;;;;;;17.13;47.19;100844.66;4957622;29;1013;-58
2023/10/01 12:41:47;;;;;;;;;;;;;;;17.06;46.61;100825.69;4957085;29;1065;-58
2023/10/01 12:44:32;;;;;;;;;;;;;;;16.96;46.40;100830.38;4957500;29;1088;-58
2023/10/01 12:47:00;;;;;;;;;;;;;;;16.96;46.18;100825.72;4948279;29;1983;-60
2023/10/01 12:49:32;;;;;;;;;;;;;;;16.87;46.14;100839.16;4940605;28;1045;-59
2023/10/01 12:52:01;;;;;;;;;;;;;;;16.94;45.88;100841.63;4949797;29;1177;-58
2023/10/01 12:54:27;;;;;;;;;;;;;;;16.96;45.76;100844.09;4944189;29;1180;-57
2023/10/01 12:57:38;;;;;;;;;;;;;;;16.82;46.08;100850.13;4949538;29;1137;-58
2023/10/01 12:59:43;;;;;;;;;;;;;;;16.89;45.96;100849.88;4944022;29;1971;-58
2023/10/01 13:05:16;;;;;;;;;;;;;;;16.86;45.60;100844.91;4952037;29;1197;-62
2023/10/01 13:07:38;;;;;;;;;;;;;;;17.93;46.43;100835.72;4951023;29;1452;-62
2023/10/01 13:10:07;;;;;;;;;;;;;;;17.25;47.87;100841.63;4949959;29;854;-59
2023/10/01 13:12:39;;;;;;;;;;;;;;;17.17;47.08;100839.44;4956966;29;1206;-59
2023/10/01 13:15:16;;;;;;;;;;;;;;;17.26;47.50;100846.03;4957021;29;1237;-58
2023/10/01 13:17:46;;;;;;;;;;;;;;;17.49;47.98;100836.38;4938689;28;2451;-58
2023/10/01 13:20:46;;;;;;;;;;;;;;;17.30;47.55;100838.88;4951068;29;1985;-60
2023/10/01 13:23:06;;;;;;;;;;;;;;;17.24;47.06;100840.00;4947914;29;1876;-59
2023/10/01 13:25:33;;;;;;;;;;;;;;;17.19;46.66;100838.06;4957053;29;1096;-58
2023/10/01 13:28:01;;;;;;;;;;;;;;;17.08;46.70;100837.25;4957135;29;1224;-57
2023/10/01 13:30:28;;;;;;;;;;;;;;;17.14;46.14;100834.50;4952495;29;1228;-57
2023/10/01 13:35:50;;;;;;;;;;;;;;;17.00;46.03;100829.56;4949185;28;1033;-58
2023/10/01 14:10:53;;;;;;;;;;;;;;;17.00;45.38;100826.81;4958248;29;1186;-60
2023/10/01 14:13:29;;;;;;;;;;;;;;;16.98;45.27;100826.25;4959538;29;1371;-58